sensor_id;sensor_type;location;lat;lon;timestamp;P1;durP1;ratioP1;P2;durP2;ratioP2
66721;SDS011;53633;49.932;10.884;2024-02-14T07:47:56;9.05;;;3.63;;
66721;SDS011;53633;49.932;10.884;2024-02-14T07:50:23;13.88;;;3.25;;
66721;SDS011;53633;49.932;10.884;2024-02-14T07:52:50;10.15;;;3.55;;
66721;SDS011;53633;49.932;10.884;2024-02-14T07:55:16;9.87;;;3.37;;
66721;SDS011;53633;49.932;10.884;2024-02-14T07:57:44;9.13;;;3.38;;
66721;SDS011;53633;49.932;10.884;2024-02-14T08:00:12;9.27;;;2.83;;
66721;SDS011;53633;49.932;10.884;2024-02-14T08:02:40;7.72;;;3.20;;
66721;SDS011;53633;49.932;10.884;2024-02-14T08:05:08;9.13;;;3.50;;
66721;SDS011;53633;49.932;10.884;2024-02-14T08:07:34;9.07;;;3.77;;
66721;SDS011;53633;49.932;10.884;2024-02-14T08:10:01;11.05;;;3.35;;
66721;SDS011;53633;49.932;10.884;2024-02-14T08:12:28;9.55;;;3.30;;
66721;SDS011;53633;49.932;10.884;2024-02-14T08:14:55;8.27;;;3.38;;
66721;SDS011;53633;49.932;10.884;2024-02-14T08:17:21;13.55;;;3.40;;
66721;SDS011;53633;49.932;10.884;2024-02-14T08:19:48;8.17;;;3.63;;
66721;SDS011;53633;49.932;10.884;2024-02-14T08:22:17;10.05;;;3.65;;
66721;SDS011;53633;49.932;10.884;2024-02-14T08:24:43;13.65;;;3.97;;
66721;SDS011;53633;49.932;10.884;2024-02-14T08:27:10;7.88;;;3.30;;
66721;SDS011;53633;49.932;10.884;2024-02-14T08:29:37;9.48;;;3.38;;
66721;SDS011;53633;49.932;10.884;2024-02-14T08:32:04;9.00;;;3.33;;
66721;SDS011;53633;49.932;10.884;2024-02-14T08:34:31;13.63;;;3.53;;
66721;SDS011;53633;49.932;10.884;2024-02-14T08:36:57;10.65;;;3.47;;
66721;SDS011;53633;49.932;10.884;2024-02-14T08:39:26;7.18;;;2.80;;
66721;SDS011;53633;49.932;10.884;2024-02-14T08:41:52;11.13;;;3.10;;
66721;SDS011;53633;49.932;10.884;2024-02-14T08:44:19;7.80;;;3.00;;
66721;SDS011;53633;49.932;10.884;2024-02-14T08:46:46;8.90;;;2.92;;
66721;SDS011;53633;49.932;10.884;2024-02-14T08:49:13;11.65;;;3.72;;
66721;SDS011;53633;49.932;10.884;2024-02-14T08:51:40;10.15;;;3.28;;
66721;SDS011;53633;49.932;10.884;2024-02-14T08:54:07;10.35;;;3.65;;
66721;SDS011;53633;49.932;10.884;2024-02-14T08:56:35;8.73;;;3.40;;
66721;SDS011;53633;49.932;10.884;2024-02-14T08:59:03;7.25;;;3.00;;
66721;SDS011;53633;49.932;10.884;2024-02-14T09:01:30;12.43;;;3.83;;
66721;SDS011;53633;49.932;10.884;2024-02-14T09:03:57;7.28;;;3.20;;
66721;SDS011;53633;49.932;10.884;2024-02-14T09:06:24;10.05;;;3.20;;
66721;SDS011;53633;49.932;10.884;2024-02-14T09:08:51;8.90;;;3.00;;
66721;SDS011;53633;49.932;10.884;2024-02-14T09:11:19;8.32;;;3.33;;
66721;SDS011;53633;49.932;10.884;2024-02-14T09:13:47;9.70;;;3.85;;
66721;SDS011;53633;49.932;10.884;2024-02-14T09:16:14;9.95;;;3.10;;
66721;SDS011;53633;49.932;10.884;2024-02-14T09:18:40;8.45;;;3.35;;
66721;SDS011;53633;49.932;10.884;2024-02-14T09:21:07;11.07;;;4.03;;
66721;SDS011;53633;49.932;10.884;2024-02-14T09:23:34;9.05;;;3.47;;
66721;SDS011;53633;49.932;10.884;2024-02-14T09:26:01;9.90;;;4.50;;
66721;SDS011;53633;49.932;10.884;2024-02-14T09:28:29;12.00;;;3.95;;
66721;SDS011;53633;49.932;10.884;2024-02-14T09:30:57;10.68;;;3.70;;
66721;SDS011;53633;49.932;10.884;2024-02-14T09:33:24;11.10;;;4.97;;
66721;SDS011;53633;49.932;10.884;2024-02-14T09:35:51;10.10;;;3.70;;
66721;SDS011;53633;49.932;10.884;2024-02-14T09:38:17;9.90;;;4.70;;
66721;SDS011;53633;49.932;10.884;2024-02-14T09:40:44;10.27;;;4.05;;
66721;SDS011;53633;49.932;10.884;2024-02-14T09:43:13;7.78;;;3.42;;
66721;SDS011;53633;49.932;10.884;2024-02-14T09:45:47;10.00;;;3.47;;
66721;SDS011;53633;49.932;10.884;2024-02-14T09:48:18;8.20;;;3.30;;
66721;SDS011;53633;49.932;10.884;2024-02-14T09:50:48;8.95;;;3.58;;
66721;SDS011;53633;49.932;10.884;2024-02-14T09:53:15;11.38;;;3.53;;
66721;SDS011;53633;49.932;10.884;2024-02-14T09:55:43;9.73;;;3.85;;
66721;SDS011;53633;49.932;10.884;2024-02-14T09:58:12;8.70;;;3.40;;
66721;SDS011;53633;49.932;10.884;2024-02-14T10:00:39;9.55;;;4.03;;
66721;SDS011;53633;49.932;10.884;2024-02-14T10:03:06;8.95;;;3.83;;
66721;SDS011;53633;49.932;10.884;2024-02-14T10:05:34;8.43;;;3.20;;
66721;SDS011;53633;49.932;10.884;2024-02-14T10:08:01;8.00;;;3.25;;
66721;SDS011;53633;49.932;10.884;2024-02-14T10:10:31;8.67;;;3.30;;
66721;SDS011;53633;49.932;10.884;2024-02-14T10:12:58;8.80;;;2.88;;
66721;SDS011;53633;49.932;10.884;2024-02-14T10:15:25;10.98;;;3.55;;
66721;SDS011;53633;49.932;10.884;2024-02-14T10:17:51;8.05;;;3.42;;
66721;SDS011;53633;49.932;10.884;2024-02-14T10:20:18;7.85;;;3.65;;
66721;SDS011;53633;49.932;10.884;2024-02-14T10:22:46;8.23;;;3.40;;
66721;SDS011;53633;49.932;10.884;2024-02-14T10:25:13;8.73;;;3.33;;
66721;SDS011;53633;49.932;10.884;2024-02-14T10:27:42;7.53;;;3.35;;
66721;SDS011;53633;49.932;10.884;2024-02-14T10:30:09;9.60;;;3.33;;
66721;SDS011;53633;49.932;10.884;2024-02-14T10:32:37;13.95;;;5.28;;
66721;SDS011;53633;49.932;10.884;2024-02-14T10:35:04;14.93;;;4.90;;
66721;SDS011;53633;49.932;10.884;2024-02-14T10:37:31;13.20;;;5.60;;
66721;SDS011;53633;49.932;10.884;2024-02-14T10:39:59;11.80;;;5.18;;
66721;SDS011;53633;49.932;10.884;2024-02-14T10:42:27;10.95;;;3.92;;
66721;SDS011;53633;49.932;10.884;2024-02-14T10:44:54;10.07;;;3.80;;
66721;SDS011;53633;49.932;10.884;2024-02-14T10:47:21;15.03;;;6.27;;
66721;SDS011;53633;49.932;10.884;2024-02-14T10:49:52;21.20;;;8.88;;
66721;SDS011;53633;49.932;10.884;2024-02-14T10:52:20;25.08;;;10.55;;
66721;SDS011;53633;49.932;10.884;2024-02-14T10:54:50;13.70;;;5.32;;
66721;SDS011;53633;49.932;10.884;2024-02-14T10:57:23;9.13;;;3.58;;
66721;SDS011;53633;49.932;10.884;2024-02-14T10:59:50;11.10;;;3.33;;
66721;SDS011;53633;49.932;10.884;2024-02-14T11:02:18;7.18;;;3.00;;
66721;SDS011;53633;49.932;10.884;2024-02-14T11:04:47;9.00;;;3.40;;
66721;SDS011;53633;49.932;10.884;2024-02-14T11:07:16;9.20;;;3.55;;
66721;SDS011;53633;49.932;10.884;2024-02-14T11:09:43;11.90;;;3.60;;
66721;SDS011;53633;49.932;10.884;2024-02-14T11:12:10;7.23;;;3.10;;
66721;SDS011;53633;49.932;10.884;2024-02-14T11:14:41;8.90;;;2.90;;
66721;SDS011;53633;49.932;10.884;2024-02-14T11:17:09;11.98;;;3.25;;
66721;SDS011;53633;49.932;10.884;2024-02-14T11:19:36;10.90;;;3.30;;
66721;SDS011;53633;49.932;10.884;2024-02-14T11:22:10;9.82;;;2.88;;
66721;SDS011;53633;49.932;10.884;2024-02-14T11:24:37;8.80;;;2.93;;
66721;SDS011;53633;49.932;10.884;2024-02-14T11:27:09;8.55;;;3.08;;
66721;SDS011;53633;49.932;10.884;2024-02-14T11:29:52;8.15;;;3.30;;
66721;SDS011;53633;49.932;10.884;2024-02-14T11:32:19;7.75;;;2.92;;
66721;SDS011;53633;49.932;10.884;2024-02-14T11:34:52;8.77;;;2.80;;
66721;SDS011;53633;49.932;10.884;2024-02-14T11:37:19;8.27;;;2.60;;
66721;SDS011;53633;49.932;10.884;2024-02-14T11:39:46;7.80;;;2.90;;
66721;SDS011;53633;49.932;10.884;2024-02-14T11:42:13;7.35;;;2.88;;
66721;SDS011;53633;49.932;10.884;2024-02-14T11:44:40;8.60;;;3.17;;
66721;SDS011;53633;49.932;10.884;2024-02-14T11:47:09;7.70;;;3.03;;
66721;SDS011;53633;49.932;10.884;2024-02-14T11:49:36;7.70;;;2.67;;
66721;SDS011;53633;49.932;10.884;2024-02-14T11:52:03;8.05;;;2.80;;
66721;SDS011;53633;49.932;10.884;2024-02-14T11:54:30;7.03;;;2.80;;
66721;SDS011;53633;49.932;10.884;2024-02-14T11:56:56;7.05;;;2.92;;
66721;SDS011;53633;49.932;10.884;2024-02-14T11:59:23;6.75;;;2.97;;
66721;SDS011;53633;49.932;10.884;2024-02-14T12:01:50;7.77;;;2.20;;
66721;SDS011;53633;49.932;10.884;2024-02-14T12:04:18;6.85;;;2.35;;
66721;SDS011;53633;49.932;10.884;2024-02-14T12:06:45;6.10;;;2.40;;
66721;SDS011;53633;49.932;10.884;2024-02-14T12:09:12;8.07;;;2.50;;
66721;SDS011;53633;49.932;10.884;2024-02-14T12:11:41;7.25;;;2.88;;
66721;SDS011;53633;49.932;10.884;2024-02-14T12:14:08;6.63;;;2.27;;
66721;SDS011;53633;49.932;10.884;2024-02-14T12:16:35;6.93;;;2.33;;
66721;SDS011;53633;49.932;10.884;2024-02-14T12:19:03;5.68;;;2.63;;
66721;SDS011;53633;49.932;10.884;2024-02-14T12:21:34;6.78;;;1.77;;
66721;SDS011;53633;49.932;10.884;2024-02-14T12:24:01;7.20;;;2.50;;
66721;SDS011;53633;49.932;10.884;2024-02-14T12:26:28;6.47;;;2.40;;
66721;SDS011;53633;49.932;10.884;2024-02-14T12:28:56;6.68;;;2.45;;
66721;SDS011;53633;49.932;10.884;2024-02-14T12:31:23;8.43;;;2.58;;
66721;SDS011;53633;49.932;10.884;2024-02-14T12:33:50;7.10;;;2.40;;
66721;SDS011;53633;49.932;10.884;2024-02-14T12:36:17;6.88;;;2.35;;
66721;SDS011;53633;49.932;10.884;2024-02-14T12:38:45;5.87;;;2.07;;
66721;SDS011;53633;49.932;10.884;2024-02-14T12:41:12;5.57;;;1.75;;
66721;SDS011;53633;49.932;10.884;2024-02-14T12:43:39;4.32;;;1.60;;
66721;SDS011;53633;49.932;10.884;2024-02-14T12:46:05;4.50;;;1.50;;
66721;SDS011;53633;49.932;10.884;2024-02-14T12:48:32;7.43;;;1.63;;
66721;SDS011;53633;49.932;10.884;2024-02-14T12:50:59;3.90;;;1.17;;
66721;SDS011;53633;49.932;10.884;2024-02-14T12:53:26;5.30;;;1.20;;
66721;SDS011;53633;49.932;10.884;2024-02-14T12:55:54;4.70;;;1.30;;
66721;SDS011;53633;49.932;10.884;2024-02-14T12:58:21;6.40;;;1.70;;
66721;SDS011;53633;49.932;10.884;2024-02-14T13:00:48;4.65;;;1.30;;
66721;SDS011;53633;49.932;10.884;2024-02-14T13:03:15;5.27;;;1.37;;
66721;SDS011;53633;49.932;10.884;2024-02-14T13:05:44;7.57;;;2.22;;
66721;SDS011;53633;49.932;10.884;2024-02-14T13:08:11;6.47;;;2.17;;
66721;SDS011;53633;49.932;10.884;2024-02-14T13:10:38;5.00;;;1.60;;
66721;SDS011;53633;49.932;10.884;2024-02-14T13:13:06;4.95;;;1.60;;
66721;SDS011;53633;49.932;10.884;2024-02-14T13:15:33;5.90;;;1.60;;
66721;SDS011;53633;49.932;10.884;2024-02-14T13:17:59;4.50;;;1.30;;
66721;SDS011;53633;49.932;10.884;2024-02-14T13:20:27;5.05;;;1.63;;
66721;SDS011;53633;49.932;10.884;2024-02-14T13:22:54;4.55;;;1.40;;
66721;SDS011;53633;49.932;10.884;2024-02-14T13:25:21;5.55;;;1.73;;
66721;SDS011;53633;49.932;10.884;2024-02-14T13:27:48;5.30;;;1.40;;
66721;SDS011;53633;49.932;10.884;2024-02-14T13:30:16;4.78;;;1.40;;
66721;SDS011;53633;49.932;10.884;2024-02-14T13:32:43;6.28;;;2.05;;
66721;SDS011;53633;49.932;10.884;2024-02-14T13:35:10;5.95;;;2.17;;
66721;SDS011;53633;49.932;10.884;2024-02-14T13:37:36;6.88;;;2.30;;
66721;SDS011;53633;49.932;10.884;2024-02-14T13:40:04;5.50;;;2.10;;
66721;SDS011;53633;49.932;10.884;2024-02-14T13:42:31;4.80;;;1.58;;
66721;SDS011;53633;49.932;10.884;2024-02-14T13:44:58;5.10;;;1.20;;
66721;SDS011;53633;49.932;10.884;2024-02-14T13:47:26;3.65;;;1.25;;
66721;SDS011;53633;49.932;10.884;2024-02-14T13:49:52;3.40;;;1.10;;
66721;SDS011;53633;49.932;10.884;2024-02-14T13:52:19;4.20;;;1.23;;
66721;SDS011;53633;49.932;10.884;2024-02-14T13:54:46;5.72;;;1.30;;
66721;SDS011;53633;49.932;10.884;2024-02-14T13:57:13;7.57;;;2.15;;
66721;SDS011;53633;49.932;10.884;2024-02-14T13:59:39;6.95;;;1.73;;
66721;SDS011;53633;49.932;10.884;2024-02-14T14:02:06;10.13;;;2.65;;
66721;SDS011;53633;49.932;10.884;2024-02-14T14:04:34;5.70;;;1.63;;
66721;SDS011;53633;49.932;10.884;2024-02-14T14:07:01;7.32;;;1.70;;
66721;SDS011;53633;49.932;10.884;2024-02-14T14:09:28;12.63;;;2.60;;
66721;SDS011;53633;49.932;10.884;2024-02-14T14:11:55;11.73;;;2.92;;
66721;SDS011;53633;49.932;10.884;2024-02-14T14:14:22;4.75;;;1.42;;
66721;SDS011;53633;49.932;10.884;2024-02-14T14:16:48;5.70;;;1.57;;
66721;SDS011;53633;49.932;10.884;2024-02-14T14:19:15;6.88;;;1.60;;
66721;SDS011;53633;49.932;10.884;2024-02-14T14:21:43;7.68;;;1.70;;
66721;SDS011;53633;49.932;10.884;2024-02-14T14:24:10;5.65;;;1.70;;
66721;SDS011;53633;49.932;10.884;2024-02-14T14:26:37;4.25;;;1.38;;
66721;SDS011;53633;49.932;10.884;2024-02-14T14:29:03;5.53;;;1.97;;
66721;SDS011;53633;49.932;10.884;2024-02-14T14:31:32;9.02;;;2.03;;
66721;SDS011;53633;49.932;10.884;2024-02-14T14:33:59;4.60;;;1.60;;
66721;SDS011;53633;49.932;10.884;2024-02-14T14:36:26;10.35;;;2.50;;
66721;SDS011;53633;49.932;10.884;2024-02-14T14:38:54;5.85;;;1.63;;
66721;SDS011;53633;49.932;10.884;2024-02-14T14:41:21;6.97;;;1.70;;
66721;SDS011;53633;49.932;10.884;2024-02-14T14:43:47;4.63;;;1.50;;
66721;SDS011;53633;49.932;10.884;2024-02-14T14:46:14;5.90;;;1.55;;
66721;SDS011;53633;49.932;10.884;2024-02-14T14:48:42;7.95;;;2.10;;
66721;SDS011;53633;49.932;10.884;2024-02-14T14:51:09;5.18;;;1.60;;
66721;SDS011;53633;49.932;10.884;2024-02-14T14:53:36;5.37;;;1.80;;
66721;SDS011;53633;49.932;10.884;2024-02-14T14:56:04;7.30;;;2.17;;
66721;SDS011;53633;49.932;10.884;2024-02-14T14:58:32;5.30;;;2.08;;
66721;SDS011;53633;49.932;10.884;2024-02-14T15:00:59;6.85;;;2.10;;
66721;SDS011;53633;49.932;10.884;2024-02-14T15:03:26;5.25;;;1.83;;
66721;SDS011;53633;49.932;10.884;2024-02-14T15:05:53;7.13;;;1.53;;
66721;SDS011;53633;49.932;10.884;2024-02-14T15:08:20;10.73;;;2.47;;
66721;SDS011;53633;49.932;10.884;2024-02-14T15:10:47;11.15;;;2.35;;
66721;SDS011;53633;49.932;10.884;2024-02-14T15:13:15;10.80;;;2.85;;
66721;SDS011;53633;49.932;10.884;2024-02-14T15:15:41;11.65;;;3.72;;
66721;SDS011;53633;49.932;10.884;2024-02-14T15:18:08;24.57;;;6.07;;
66721;SDS011;53633;49.932;10.884;2024-02-14T15:20:35;27.17;;;7.90;;
66721;SDS011;53633;49.932;10.884;2024-02-14T15:23:02;14.88;;;4.57;;
66721;SDS011;53633;49.932;10.884;2024-02-14T15:25:28;11.25;;;3.13;;
66721;SDS011;53633;49.932;10.884;2024-02-14T15:27:55;11.30;;;3.17;;
66721;SDS011;53633;49.932;10.884;2024-02-14T15:30:23;24.30;;;6.67;;
66721;SDS011;53633;49.932;10.884;2024-02-14T15:32:51;18.52;;;5.28;;
66721;SDS011;53633;49.932;10.884;2024-02-14T15:35:18;9.98;;;4.13;;
66721;SDS011;53633;49.932;10.884;2024-02-14T15:37:45;8.13;;;3.67;;
66721;SDS011;53633;49.932;10.884;2024-02-14T15:40:12;10.63;;;3.80;;
66721;SDS011;53633;49.932;10.884;2024-02-14T15:42:39;9.03;;;3.30;;
66721;SDS011;53633;49.932;10.884;2024-02-14T15:45:06;8.95;;;2.85;;
66721;SDS011;53633;49.932;10.884;2024-02-14T15:47:35;8.07;;;3.20;;
66721;SDS011;53633;49.932;10.884;2024-02-14T15:50:02;7.45;;;2.65;;
66721;SDS011;53633;49.932;10.884;2024-02-14T15:52:29;6.22;;;1.80;;
66721;SDS011;53633;49.932;10.884;2024-02-14T15:54:56;4.27;;;1.37;;
66721;SDS011;53633;49.932;10.884;2024-02-14T15:57:22;6.55;;;1.80;;
66721;SDS011;53633;49.932;10.884;2024-02-14T15:59:49;5.05;;;1.90;;
66721;SDS011;53633;49.932;10.884;2024-02-14T16:02:16;6.43;;;1.65;;
66721;SDS011;53633;49.932;10.884;2024-02-14T16:04:44;8.38;;;1.95;;
66721;SDS011;53633;49.932;10.884;2024-02-14T16:07:11;6.77;;;2.70;;
66721;SDS011;53633;49.932;10.884;2024-02-14T16:09:37;7.43;;;2.05;;
66721;SDS011;53633;49.932;10.884;2024-02-14T16:12:04;16.40;;;4.47;;
66721;SDS011;53633;49.932;10.884;2024-02-14T16:14:31;17.17;;;4.45;;
66721;SDS011;53633;49.932;10.884;2024-02-14T16:16:58;37.35;;;9.77;;
